Time;durP1;ratioP1;P1;durP2;ratioP2;P2;SDS_P1;SDS_P2;PMS_P1;PMS_P2;Temp;Humidity;BMP_temperature;BMP_pressure;BME280_temperature;BME280_humidity;BME280_pressure;Samples;Min_cycle;Max_cycle;Signal;HPM_P1;HPM_P2
2021/08/24 00:01:02;;;;;;;1.20;1.20;;;15.60;98.00;;;;;;5098025;28;20482;-71
2021/08/24 00:03:29;;;;;;;1.40;1.40;;;15.60;98.00;;;;;;5095237;28;20494;-72
2021/08/24 00:05:56;;;;;;;1.20;1.10;;;15.60;98.00;;;;;;5094893;28;20545;-71
2021/08/24 00:08:22;;;;;;;1.80;1.50;;;15.50;98.00;;;;;;5094777;28;20490;-71
2021/08/24 00:10:52;;;;;;;1.97;1.40;;;15.40;98.00;;;;;;5094966;28;20496;-73
2021/08/24 00:13:21;;;;;;;2.03;1.30;;;15.40;98.00;;;;;;5094458;28;20493;-71
2021/08/24 00:15:50;;;;;;;1.30;1.30;;;15.40;98.00;;;;;;5094633;28;20512;-72
2021/08/24 00:18:18;;;;;;;1.20;1.00;;;15.30;98.00;;;;;;5094342;28;20875;-73
2021/08/24 00:20:47;;;;;;;1.27;1.23;;;15.40;98.00;;;;;;5094221;28;21187;-73
2021/08/24 00:23:17;;;;;;;1.30;1.30;;;15.30;98.00;;;;;;5094279;28;20487;-72
2021/08/24 00:25:47;;;;;;;1.20;1.00;;;15.30;98.00;;;;;;5094149;28;20487;-71
2021/08/24 00:28:14;;;;;;;1.20;1.10;;;15.50;98.00;;;;;;5094000;28;20448;-72
2021/08/24 00:30:42;;;;;;;1.30;1.30;;;15.50;98.00;;;;;;5094284;28;20869;-72
2021/08/24 00:33:11;;;;;;;1.30;1.13;;;15.50;98.00;;;;;;5093930;28;20583;-72
2021/08/24 00:35:40;;;;;;;1.20;1.10;;;15.60;98.00;;;;;;5093899;28;20456;-72
2021/08/24 00:38:08;;;;;;;1.20;1.10;;;15.70;98.00;;;;;;5094004;28;20652;-73
2021/08/24 00:40:35;;;;;;;1.20;1.10;;;15.80;98.00;;;;;;5093772;28;20801;-71
2021/08/24 00:43:02;;;;;;;1.30;1.20;;;15.70;98.00;;;;;;5093845;28;20487;-72
2021/08/24 00:45:32;;;;;;;1.30;1.03;;;15.70;98.00;;;;;;5093913;28;20455;-72
2021/08/24 00:48:00;;;;;;;1.70;1.07;;;15.80;98.00;;;;;;5093862;28;20506;-72
2021/08/24 00:50:33;;;;;;;1.20;1.13;;;15.60;98.00;;;;;;5093625;28;20543;-72
2021/08/24 00:53:04;;;;;;;1.30;1.10;;;15.60;98.00;;;;;;5093826;28;20999;-71
2021/08/24 00:55:33;;;;;;;1.30;1.20;;;15.40;98.00;;;;;;5093745;28;20529;-71
2021/08/24 00:58:10;;;;;;;1.20;1.13;;;15.50;98.00;;;;;;5093765;28;20509;-72
2021/08/24 01:00:39;;;;;;;1.20;1.00;;;15.50;98.00;;;;;;5093540;28;20456;-72
2021/08/24 01:03:08;;;;;;;1.30;1.20;;;15.40;98.00;;;;;;5093606;28;20542;-72
2021/08/24 01:05:38;;;;;;;1.20;1.10;;;15.20;98.00;;;;;;5093606;28;20513;-72
2021/08/24 01:08:10;;;;;;;1.20;1.00;;;15.20;98.00;;;;;;5093464;28;20466;-71
2021/08/24 01:10:41;;;;;;;1.40;1.20;;;15.20;98.00;;;;;;5093516;28;20506;-72
2021/08/24 01:13:17;;;;;;;1.20;1.10;;;15.10;98.00;;;;;;5093395;28;20502;-72
2021/08/24 01:15:51;;;;;;;1.20;1.10;;;15.10;98.00;;;;;;5093170;28;20481;-71
2021/08/24 01:18:26;;;;;;;1.20;1.00;;;15.00;98.00;;;;;;5093304;28;21004;-72
2021/08/24 01:21:14;;;;;;;1.20;1.10;;;15.00;98.00;;;;;;5093112;28;20516;-72
2021/08/24 01:23:52;;;;;;;1.40;1.10;;;15.00;98.00;;;;;;5093275;28;20914;-72
2021/08/24 01:26:38;;;;;;;1.30;1.20;;;15.00;98.00;;;;;;5093216;28;20538;-72
2021/08/24 01:29:31;;;;;;;1.50;1.30;;;15.00;98.00;;;;;;5092626;28;20495;-72
2021/08/24 01:32:15;;;;;;;1.30;1.10;;;14.90;98.00;;;;;;5093305;28;20489;-72
2021/08/24 01:34:57;;;;;;;1.93;1.30;;;14.90;98.00;;;;;;5092976;28;20830;-72
2021/08/24 01:37:33;;;;;;;1.20;1.00;;;14.90;98.00;;;;;;5093075;28;20494;-73
2021/08/24 01:40:08;;;;;;;1.30;1.17;;;14.80;98.00;;;;;;5092704;28;20535;-72
2021/08/24 01:42:36;;;;;;;1.30;1.10;;;14.80;98.00;;;;;;5092706;28;20483;-71
2021/08/24 01:45:09;;;;;;;1.60;1.23;;;14.70;98.00;;;;;;5092816;28;20490;-72
2021/08/24 01:47:45;;;;;;;1.20;1.00;;;14.70;98.00;;;;;;5092480;28;20462;-72
2021/08/24 01:50:17;;;;;;;1.50;1.50;;;14.70;98.00;;;;;;5092573;28;20492;-72
2021/08/24 01:52:50;;;;;;;1.30;1.10;;;14.70;98.00;;;;;;5092374;28;20510;-72
2021/08/24 01:55:22;;;;;;;1.40;1.20;;;14.70;98.00;;;;;;5092530;28;20562;-72
2021/08/24 01:57:51;;;;;;;1.20;1.03;;;14.70;98.00;;;;;;5092386;28;20529;-72
2021/08/24 02:00:19;;;;;;;1.73;1.63;;;14.70;98.00;;;;;;5092505;28;20490;-72
2021/08/24 02:02:51;;;;;;;1.20;1.10;;;14.70;98.00;;;;;;5092368;28;20538;-72
2021/08/24 02:05:22;;;;;;;1.40;1.23;;;14.70;98.00;;;;;;5092515;28;20451;-72
2021/08/24 02:07:57;;;;;;;1.43;1.10;;;14.60;98.00;;;;;;5092197;28;20511;-72
2021/08/24 02:10:26;;;;;;;1.30;1.30;;;14.60;98.00;;;;;;5074313;28;20484;-71
2021/08/24 02:12:57;;;;;;;1.50;1.20;;;14.50;98.00;;;;;;5092269;28;20497;-71
2021/08/24 02:15:29;;;;;;;1.20;1.10;;;14.50;98.00;;;;;;5092296;28;20480;-71
2021/08/24 02:17:59;;;;;;;1.20;1.10;;;14.60;98.00;;;;;;5092175;28;20453;-71
2021/08/24 02:20:31;;;;;;;1.20;1.00;;;14.50;98.00;;;;;;5092265;28;20459;-72
2021/08/24 02:23:05;;;;;;;1.20;1.20;;;14.50;98.00;;;;;;5091740;28;20483;-72
2021/08/24 02:25:36;;;;;;;1.20;1.10;;;14.50;98.00;;;;;;5092089;28;20536;-74
2021/08/24 02:28:10;;;;;;;1.30;1.27;;;14.50;98.00;;;;;;5091487;28;20495;-72
2021/08/24 02:30:43;;;;;;;1.60;1.23;;;14.50;98.00;;;;;;5091975;28;20462;-72
2021/08/24 02:33:12;;;;;;;1.30;1.20;;;14.50;98.00;;;;;;5091821;28;20505;-72
2021/08/24 02:35:44;;;;;;;1.47;1.20;;;14.40;98.00;;;;;;5092034;28;20498;-71
2021/08/24 02:38:16;;;;;;;1.20;1.10;;;14.30;98.00;;;;;;5091906;28;20489;-72
2021/08/24 02:40:49;;;;;;;1.20;1.00;;;14.20;98.00;;;;;;5091955;28;20482;-72
2021/08/24 02:43:22;;;;;;;1.20;1.10;;;14.10;98.00;;;;;;5091919;28;20845;-72
2021/08/24 02:45:57;;;;;;;1.30;1.20;;;14.00;98.00;;;;;;5092018;28;20517;-72
2021/08/24 02:48:26;;;;;;;1.73;1.20;;;14.00;98.00;;;;;;5091865;28;20480;-73
2021/08/24 02:50:54;;;;;;;1.40;1.20;;;14.00;98.00;;;;;;5091872;28;20452;-71
2021/08/24 02:53:23;;;;;;;1.40;1.10;;;14.00;98.00;;;;;;5092170;28;20505;-72
2021/08/24 02:55:53;;;;;;;1.20;1.10;;;14.10;98.00;;;;;;5091681;28;20502;-73
2021/08/24 02:58:20;;;;;;;1.20;1.07;;;14.00;98.00;;;;;;5092017;28;20864;-72
2021/08/24 03:00:47;;;;;;;1.20;1.00;;;14.00;98.00;;;;;;5091463;28;20515;-72
2021/08/24 03:03:14;;;;;;;2.00;1.17;;;13.90;98.00;;;;;;5091693;28;20886;-72
2021/08/24 03:05:41;;;;;;;3.60;1.20;;;13.80;98.00;;;;;;5091653;28;20519;-71
2021/08/24 03:08:10;;;;;;;1.20;1.10;;;13.90;98.00;;;;;;5091520;28;20498;-73
2021/08/24 03:10:42;;;;;;;1.20;1.20;;;13.80;98.00;;;;;;5091362;28;20944;-72
2021/08/24 03:13:16;;;;;;;1.50;1.17;;;13.80;98.00;;;;;;5091632;28;20453;-72
2021/08/24 03:15:50;;;;;;;1.20;1.03;;;13.80;98.00;;;;;;5091673;28;20456;-72
2021/08/24 03:18:22;;;;;;;1.30;1.10;;;13.80;98.00;;;;;;5091371;28;20832;-73
2021/08/24 03:20:53;;;;;;;1.20;1.07;;;13.70;98.00;;;;;;5091441;28;21062;-73
2021/08/24 03:23:22;;;;;;;1.20;1.00;;;13.70;98.00;;;;;;5091448;28;21092;-72
2021/08/24 03:25:51;;;;;;;1.30;1.30;;;13.60;98.00;;;;;;5091232;28;20522;-72
2021/08/24 03:28:22;;;;;;;1.50;1.40;;;13.50;98.00;;;;;;5091188;28;20453;-72
2021/08/24 03:30:49;;;;;;;1.57;1.30;;;13.40;98.00;;;;;;5091474;28;20468;-72
2021/08/24 03:33:17;;;;;;;1.23;1.07;;;13.30;98.00;;;;;;5091174;28;20473;-72
2021/08/24 03:35:45;;;;;;;1.20;1.00;;;13.30;98.00;;;;;;5091289;28;20510;-72
2021/08/24 03:38:13;;;;;;;1.20;1.03;;;13.30;98.00;;;;;;5092886;28;20947;-72
2021/08/24 03:40:40;;;;;;;1.30;1.10;;;13.40;98.00;;;;;;5095176;28;20525;-72
2021/08/24 03:43:08;;;;;;;1.40;1.40;;;13.20;98.00;;;;;;5094953;28;20483;-72
2021/08/24 03:45:38;;;;;;;1.20;1.10;;;13.30;98.00;;;;;;5095074;28;20501;-72
2021/08/24 03:48:06;;;;;;;1.60;1.20;;;13.30;98.00;;;;;;5095077;28;20460;-72
2021/08/24 03:50:37;;;;;;;1.20;1.10;;;13.30;98.00;;;;;;5094969;28;20456;-72
2021/08/24 03:53:04;;;;;;;1.40;1.20;;;13.20;98.00;;;;;;5094951;28;20498;-72
2021/08/24 03:55:31;;;;;;;1.70;1.23;;;13.30;98.00;;;;;;5095000;28;20494;-72
2021/08/24 03:57:58;;;;;;;1.20;0.90;;;13.30;98.00;;;;;;5094880;28;20458;-72
2021/08/24 04:00:26;;;;;;;1.50;1.20;;;13.30;98.00;;;;;;5094798;28;20890;-72
2021/08/24 04:02:53;;;;;;;1.50;1.50;;;13.30;98.00;;;;;;5094653;28;20516;-72
2021/08/24 04:05:20;;;;;;;2.33;1.13;;;13.30;98.00;;;;;;5094863;28;20489;-72
2021/08/24 04:07:47;;;;;;;1.47;1.20;;;13.40;98.00;;;;;;5094717;28;20484;-72
2021/08/24 04:10:15;;;;;;;1.20;1.00;;;13.40;98.00;;;;;;5094568;28;20998;-71
2021/08/24 04:12:44;;;;;;;1.20;1.20;;;13.40;98.00;;;;;;5094959;28;20483;-72
2021/08/24 04:15:12;;;;;;;1.20;1.00;;;13.60;98.00;;;;;;5093867;28;20458;-71
2021/08/24 04:17:41;;;;;;;1.50;1.20;;;13.70;98.00;;;;;;5094608;28;20812;-72
2021/08/24 04:20:11;;;;;;;1.73;1.37;;;13.80;98.00;;;;;;5094575;28;20485;-72
2021/08/24 04:22:44;;;;;;;1.90;1.30;;;13.80;98.00;;;;;;5094024;28;20596;-72
2021/08/24 04:25:12;;;;;;;1.57;1.20;;;13.90;98.00;;;;;;5094372;28;20456;-72
2021/08/24 04:27:40;;;;;;;1.30;1.20;;;14.00;98.00;;;;;;5094293;28;20456;-71
2021/08/24 04:30:08;;;;;;;1.60;1.20;;;14.00;98.00;;;;;;5094234;28;20547;-72
2021/08/24 04:32:37;;;;;;;1.20;1.10;;;13.90;98.00;;;;;;5093439;28;20469;-72
2021/08/24 04:35:08;;;;;;;1.20;1.13;;;13.90;98.00;;;;;;5093511;28;20823;-72
2021/08/24 04:37:36;;;;;;;1.60;1.20;;;13.80;98.00;;;;;;5093289;28;20512;-72
2021/08/24 04:40:03;;;;;;;1.43;1.20;;;13.70;98.00;;;;;;5093151;28;20535;-72
2021/08/24 04:42:30;;;;;;;1.30;1.27;;;13.70;98.00;;;;;;5093767;28;20510;-72
2021/08/24 04:44:58;;;;;;;1.40;1.10;;;13.80;98.00;;;;;;5093985;28;20492;-71
2021/08/24 04:47:25;;;;;;;1.30;1.17;;;13.80;98.00;;;;;;5093739;28;20455;-71
2021/08/24 04:49:53;;;;;;;1.80;1.57;;;13.80;98.00;;;;;;5093133;28;20900;-72
2021/08/24 04:52:21;;;;;;;1.30;1.10;;;13.80;98.00;;;;;;5093908;28;20997;-72
2021/08/24 04:54:48;;;;;;;1.20;1.20;;;13.90;98.00;;;;;;5093594;28;20537;-72
2021/08/24 04:57:16;;;;;;;1.23;1.07;;;13.70;98.00;;;;;;5093659;28;20453;-72
2021/08/24 04:59:43;;;;;;;1.40;1.07;;;13.70;98.00;;;;;;5093641;28;20489;-72
2021/08/24 05:02:10;;;;;;;1.73;1.20;;;13.70;98.00;;;;;;5093345;28;20480;-71
2021/08/24 05:04:37;;;;;;;1.40;1.20;;;13.80;98.00;;;;;;5093579;28;20456;-72
2021/08/24 05:07:04;;;;;;;1.20;1.10;;;13.90;98.00;;;;;;5093538;28;20494;-72
2021/08/24 05:09:32;;;;;;;1.63;1.33;;;14.10;98.00;;;;;;5093487;28;20500;-71
2021/08/24 05:11:59;;;;;;;1.20;1.10;;;14.00;98.00;;;;;;5093346;28;20454;-73
2021/08/24 05:14:26;;;;;;;1.30;1.10;;;14.00;98.00;;;;;;5093480;28;20943;-72
2021/08/24 05:16:54;;;;;;;6.80;1.20;;;14.00;98.00;;;;;;5093413;28;20516;-71
2021/08/24 05:19:21;;;;;;;1.43;1.37;;;14.10;98.00;;;;;;5093200;28;20458;-72
2021/08/24 05:21:50;;;;;;;1.43;1.30;;;14.10;98.00;;;;;;5093396;28;20540;-72
2021/08/24 05:24:17;;;;;;;1.60;1.17;;;14.10;98.00;;;;;;5093252;28;20501;-72
2021/08/24 05:26:46;;;;;;;1.30;1.20;;;14.30;98.00;;;;;;5093488;28;20488;-72
2021/08/24 05:29:16;;;;;;;1.20;1.00;;;14.20;98.00;;;;;;5093331;28;20485;-72
2021/08/24 05:31:43;;;;;;;1.47;1.40;;;14.30;98.00;;;;;;5093423;28;20793;-72
2021/08/24 05:34:10;;;;;;;1.30;1.10;;;14.30;98.00;;;;;;5093207;28;20841;-72
2021/08/24 05:36:38;;;;;;;1.30;1.10;;;14.30;98.00;;;;;;5093035;28;20488;-72
2021/08/24 05:39:05;;;;;;;1.20;1.10;;;14.20;98.00;;;;;;5092979;28;20547;-71
2021/08/24 05:41:32;;;;;;;1.90;1.47;;;14.30;98.00;;;;;;5092940;28;20517;-72
2021/08/24 05:44:01;;;;;;;2.33;1.57;;;14.40;98.00;;;;;;5092619;28;20573;-72
2021/08/24 05:46:28;;;;;;;1.57;1.53;;;14.40;98.00;;;;;;5092973;28;20509;-71
2021/08/24 05:48:55;;;;;;;1.57;1.17;;;14.50;98.00;;;;;;5092644;28;20493;-72
2021/08/24 05:51:23;;;;;;;1.20;1.10;;;14.30;98.00;;;;;;5092389;28;20482;-73
2021/08/24 05:53:51;;;;;;;1.20;1.10;;;14.30;98.00;;;;;;5092508;28;20449;-72
2021/08/24 05:56:22;;;;;;;2.63;1.53;;;14.30;98.00;;;;;;5092619;28;20491;-72
2021/08/24 05:58:51;;;;;;;1.40;1.20;;;14.40;98.00;;;;;;5092341;28;20455;-72
2021/08/24 06:01:23;;;;;;;1.40;1.40;;;14.40;98.00;;;;;;5091340;28;20467;-72
2021/08/24 06:03:50;;;;;;;2.13;1.77;;;14.40;98.00;;;;;;5074689;28;20495;-72
2021/08/24 06:06:19;;;;;;;1.97;1.30;;;14.60;98.00;;;;;;5092294;28;20612;-73
2021/08/24 06:08:46;;;;;;;1.30;1.10;;;14.80;98.00;;;;;;5092255;28;20460;-74
2021/08/24 06:11:18;;;;;;;1.20;1.10;;;14.80;98.00;;;;;;5092268;28;20470;-74
2021/08/24 06:13:45;;;;;;;1.47;1.37;;;14.70;98.00;;;;;;5092215;28;20480;-72
2021/08/24 06:16:12;;;;;;;1.30;1.00;;;14.80;98.00;;;;;;5092138;28;20496;-73
2021/08/24 06:18:40;;;;;;;1.40;1.30;;;14.70;98.00;;;;;;5092113;28;20445;-71
2021/08/24 06:21:07;;;;;;;1.20;1.10;;;14.80;98.00;;;;;;5092209;28;20517;-73
2021/08/24 06:23:34;;;;;;;1.87;1.40;;;14.80;98.00;;;;;;5074203;28;21121;-73
2021/08/24 06:26:01;;;;;;;1.47;1.30;;;14.90;98.00;;;;;;5092234;28;20457;-74
2021/08/24 06:28:28;;;;;;;2.13;1.60;;;14.90;98.00;;;;;;5092095;28;20510;-73
2021/08/24 06:30:56;;;;;;;2.00;1.47;;;14.80;98.00;;;;;;5091627;28;20513;-72
2021/08/24 06:33:27;;;;;;;1.30;1.27;;;14.90;98.00;;;;;;5091990;28;20522;-72
2021/08/24 06:35:56;;;;;;;3.93;2.07;;;14.90;98.00;;;;;;5092045;28;20488;-72
2021/08/24 06:38:23;;;;;;;1.30;1.20;;;15.00;98.00;;;;;;5092149;28;20457;-72
2021/08/24 06:40:50;;;;;;;1.20;1.10;;;15.00;98.00;;;;;;5092264;28;20453;-73
2021/08/24 06:43:17;;;;;;;1.50;1.40;;;14.90;98.00;;;;;;5091772;28;20482;-72
2021/08/24 06:45:45;;;;;;;1.33;1.30;;;15.10;98.00;;;;;;5092178;28;20449;-73
2021/08/24 06:48:11;;;;;;;1.60;1.30;;;15.10;98.00;;;;;;5092104;28;20885;-74
2021/08/24 06:50:38;;;;;;;1.40;1.30;;;15.10;98.00;;;;;;5091986;28;20975;-72
2021/08/24 06:53:07;;;;;;;1.30;1.10;;;15.00;98.00;;;;;;5091887;28;20545;-72
2021/08/24 06:55:34;;;;;;;1.87;1.30;;;15.10;98.00;;;;;;5092125;28;20847;-72
2021/08/24 06:58:02;;;;;;;1.20;1.10;;;15.10;98.00;;;;;;5088697;28;20538;-72
2021/08/24 07:00:29;;;;;;;1.40;1.37;;;15.00;98.00;;;;;;5064657;28;20540;-72
2021/08/24 07:02:57;;;;;;;1.20;1.20;;;14.80;98.00;;;;;;5085980;28;20485;-71
2021/08/24 07:05:26;;;;;;;1.77;1.40;;;14.80;98.00;;;;;;5078489;28;20445;-73
2021/08/24 07:07:54;;;;;;;1.70;1.60;;;15.00;98.00;;;;;;5077532;28;20831;-74
2021/08/24 07:10:27;;;;;;;1.67;1.63;;;15.10;98.00;;;;;;5077895;28;20459;-73
2021/08/24 07:12:54;;;;;;;1.20;1.10;;;15.30;98.00;;;;;;5087687;28;20485;-72
2021/08/24 07:15:23;;;;;;;1.20;1.10;;;15.50;98.00;;;;;;5081948;28;20513;-72
2021/08/24 07:17:53;;;;;;;1.60;1.30;;;15.50;98.00;;;;;;5090372;28;20463;-74
2021/08/24 07:20:20;;;;;;;1.20;1.17;;;16.00;98.00;;;;;;5080031;28;20540;-72
2021/08/24 07:22:48;;;;;;;1.37;1.20;;;16.60;98.00;;;;;;5074587;28;20893;-72
2021/08/24 07:25:18;;;;;;;1.30;1.10;;;17.10;98.00;;;;;;5081631;28;20854;-72
2021/08/24 07:27:47;;;;;;;1.60;1.37;;;17.50;98.00;;;;;;5074526;28;20460;-71
2021/08/24 07:30:15;;;;;;;1.33;1.33;;;17.80;98.00;;;;;;5089801;28;20468;-71
2021/08/24 07:32:42;;;;;;;2.53;1.20;;;17.80;98.00;;;;;;5089324;28;21035;-72
2021/08/24 07:35:11;;;;;;;1.20;1.10;;;17.70;98.00;;;;;;5090462;28;20481;-72
2021/08/24 07:37:38;;;;;;;1.97;1.40;;;17.60;98.00;;;;;;5082551;28;20480;-72
2021/08/24 07:40:07;;;;;;;1.30;1.30;;;17.40;98.00;;;;;;5089227;28;20490;-71
2021/08/24 07:42:35;;;;;;;1.50;1.43;;;17.20;98.00;;;;;;5074145;28;20464;-72
2021/08/24 07:45:03;;;;;;;1.47;1.20;;;17.00;98.00;;;;;;5081300;28;20545;-72
2021/08/24 07:47:34;;;;;;;2.30;1.63;;;17.00;98.00;;;;;;5073931;28;20561;-73
2021/08/24 07:50:01;;;;;;;1.30;1.27;;;17.00;98.00;;;;;;5067077;28;20521;-72
2021/08/24 07:52:28;;;;;;;1.27;1.17;;;17.10;98.00;;;;;;5082037;28;20926;-73
2021/08/24 07:54:55;;;;;;;2.53;1.50;;;17.10;98.00;;;;;;5074205;28;20495;-72
2021/08/24 07:57:22;;;;;;;1.30;1.20;;;17.00;98.00;;;;;;5080863;28;20494;-73
2021/08/24 07:59:49;;;;;;;1.40;1.17;;;16.70;98.00;;;;;;5072435;28;20455;-71
2021/08/24 08:02:18;;;;;;;1.30;1.23;;;16.70;98.00;;;;;;5073199;28;20460;-72
2021/08/24 08:04:46;;;;;;;1.20;1.17;;;16.70;98.00;;;;;;5081563;28;20522;-72
2021/08/24 08:07:14;;;;;;;1.60;1.40;;;16.80;98.00;;;;;;5089799;28;20487;-71
2021/08/24 08:09:41;;;;;;;1.20;1.20;;;16.80;98.00;;;;;;5072924;28;20491;-72
2021/08/24 08:12:09;;;;;;;1.40;1.17;;;16.60;98.00;;;;;;5081631;28;20455;-72
2021/08/24 08:14:37;;;;;;;1.67;1.60;;;16.60;98.00;;;;;;5081849;28;20483;-71
2021/08/24 08:17:04;;;;;;;1.90;1.43;;;16.60;98.00;;;;;;5081082;28;20456;-72
2021/08/24 08:19:33;;;;;;;1.40;1.23;;;16.80;98.00;;;;;;5089669;28;20546;-72
2021/08/24 08:22:00;;;;;;;2.00;1.40;;;16.90;98.00;;;;;;5080249;28;20456;-73
2021/08/24 08:24:29;;;;;;;1.67;1.40;;;16.90;98.00;;;;;;5079162;28;20564;-74
2021/08/24 08:26:56;;;;;;;2.03;1.27;;;16.90;98.00;;;;;;5071728;28;21005;-73
2021/08/24 08:29:24;;;;;;;1.30;1.10;;;16.90;98.00;;;;;;5073207;28;20898;-71
2021/08/24 08:31:51;;;;;;;1.87;1.73;;;16.90;98.00;;;;;;5088892;28;20455;-72
2021/08/24 08:34:19;;;;;;;1.40;1.33;;;16.90;98.00;;;;;;5063681;28;20610;-71
2021/08/24 08:36:48;;;;;;;1.40;1.30;;;16.80;98.00;;;;;;5081041;28;20463;-74
2021/08/24 08:39:16;;;;;;;1.20;1.20;;;17.00;98.00;;;;;;5063827;28;20936;-73
2021/08/24 08:41:59;;;;;;;1.80;1.40;;;17.10;98.00;;;;;;5080489;28;20530;-72
2021/08/24 08:44:36;;;;;;;1.20;1.10;;;17.20;98.00;;;;;;5067773;28;20557;-72
2021/08/24 08:47:15;;;;;;;2.53;1.40;;;17.20;98.00;;;;;;5079672;28;20468;-73
2021/08/24 08:49:48;;;;;;;1.37;1.30;;;17.20;98.00;;;;;;5081704;28;20487;-72
2021/08/24 08:52:29;;;;;;;1.20;1.10;;;17.20;98.00;;;;;;5070747;28;21150;-74
2021/08/24 08:55:03;;;;;;;1.50;1.23;;;17.30;98.00;;;;;;5082061;28;20572;-73
2021/08/24 08:57:34;;;;;;;1.87;1.30;;;17.30;98.00;;;;;;5079913;28;20509;-73
2021/08/24 09:00:09;;;;;;;1.97;1.53;;;17.30;98.00;;;;;;5080776;28;20452;-72
2021/08/24 09:02:44;;;;;;;1.30;1.23;;;17.30;98.00;;;;;;5072110;28;20927;-74
2021/08/24 09:05:12;;;;;;;1.47;1.40;;;17.30;98.00;;;;;;5088200;28;21047;-73
2021/08/24 09:07:44;;;;;;;2.73;1.63;;;17.40;98.00;;;;;;5089064;28;20513;-72
2021/08/24 09:10:17;;;;;;;1.30;1.13;;;17.30;98.00;;;;;;5079228;28;20495;-74
2021/08/24 09:12:47;;;;;;;1.87;1.20;;;17.40;98.00;;;;;;5081223;28;20546;-72
2021/08/24 09:15:18;;;;;;;1.57;1.47;;;17.30;98.00;;;;;;5088632;28;20464;-73
2021/08/24 09:17:46;;;;;;;1.37;1.13;;;17.30;98.00;;;;;;5087296;28;20657;-73
2021/08/24 09:20:21;;;;;;;1.50;1.30;;;17.30;98.00;;;;;;5077544;28;20544;-72
2021/08/24 09:22:51;;;;;;;2.03;1.40;;;17.20;98.00;;;;;;5075182;28;20462;-71
2021/08/24 09:25:21;;;;;;;1.20;1.10;;;17.30;98.00;;;;;;5079961;28;20578;-74
2021/08/24 09:27:57;;;;;;;2.70;1.50;;;17.30;98.00;;;;;;5077320;28;20558;-74
2021/08/24 09:30:25;;;;;;;1.50;1.30;;;17.20;98.00;;;;;;5065575;28;20820;-72
2021/08/24 09:33:01;;;;;;;1.60;1.30;;;17.10;98.00;;;;;;5088640;28;20539;-72
2021/08/24 09:35:33;;;;;;;1.40;1.27;;;17.00;98.00;;;;;;5065155;28;20871;-73
2021/08/24 09:38:11;;;;;;;1.70;1.43;;;17.00;98.00;;;;;;5076947;28;20459;-72
2021/08/24 09:40:43;;;;;;;1.23;1.13;;;17.00;98.00;;;;;;5079227;28;20495;-72
2021/08/24 09:43:25;;;;;;;1.50;1.20;;;17.00;98.00;;;;;;5079947;28;20548;-73
2021/08/24 09:46:06;;;;;;;1.60;1.30;;;16.90;98.00;;;;;;5079330;28;20472;-74
2021/08/24 09:48:49;;;;;;;1.83;1.40;;;16.90;98.00;;;;;;5088556;28;21030;-72
2021/08/24 09:51:20;;;;;;;1.60;1.43;;;16.80;98.00;;;;;;5074153;28;20471;-72
2021/08/24 09:53:55;;;;;;;1.30;1.20;;;16.90;98.00;;;;;;5075623;28;20459;-72
2021/08/24 09:56:26;;;;;;;1.20;1.10;;;17.00;98.00;;;;;;5069954;28;20508;-72
2021/08/24 09:58:54;;;;;;;1.30;1.20;;;17.00;98.00;;;;;;5071281;28;20500;-74
2021/08/24 10:01:22;;;;;;;1.70;1.50;;;17.00;98.00;;;;;;5071078;28;20491;-72
2021/08/24 10:04:04;;;;;;;1.73;1.30;;;17.00;98.00;;;;;;5071146;28;20523;-74
2021/08/24 10:06:33;;;;;;;2.23;1.47;;;17.10;98.00;;;;;;5077237;28;20494;-71
2021/08/24 10:09:15;;;;;;;1.20;1.10;;;17.10;98.00;;;;;;5080565;28;20491;-72
2021/08/24 10:11:42;;;;;;;1.40;1.27;;;17.20;98.00;;;;;;5070507;28;20491;-73
2021/08/24 10:14:19;;;;;;;1.50;1.10;;;17.30;98.00;;;;;;5078880;28;20482;-72
2021/08/24 10:16:48;;;;;;;1.20;1.10;;;17.30;98.00;;;;;;5079147;28;20525;-71
2021/08/24 10:19:25;;;;;;;1.33;1.13;;;17.30;98.00;;;;;;5062405;28;20457;-73
2021/08/24 10:21:57;;;;;;;1.87;1.57;;;17.30;98.00;;;;;;5077048;28;20852;-72
2021/08/24 10:24:30;;;;;;;1.50;1.50;;;17.20;98.00;;;;;;5079001;28;20586;-73
2021/08/24 10:27:00;;;;;;;2.03;1.63;;;17.30;98.00;;;;;;5072898;28;20531;-75
2021/08/24 10:29:29;;;;;;;1.63;1.60;;;17.30;98.00;;;;;;5078652;28;20460;-73
2021/08/24 10:32:02;;;;;;;2.90;1.63;;;17.60;98.00;;;;;;5084516;28;20460;-75
2021/08/24 10:34:35;;;;;;;1.73;1.70;;;17.90;98.00;;;;;;5083565;28;20460;-72
2021/08/24 10:37:30;;;;;;;1.60;1.47;;;18.20;98.00;;;;;;5079539;28;20492;-73
2021/08/24 10:40:17;;;;;;;1.40;1.20;;;18.40;98.00;;;;;;5070104;28;20548;-72
2021/08/24 10:43:00;;;;;;;1.77;1.60;;;18.60;98.00;;;;;;5070788;28;20545;-73
2021/08/24 10:45:29;;;;;;;2.07;1.63;;;18.60;98.00;;;;;;5072905;28;21098;-74
2021/08/24 10:47:58;;;;;;;1.43;1.40;;;18.50;98.00;;;;;;5081081;28;20457;-74
2021/08/24 10:50:32;;;;;;;1.70;1.60;;;18.30;98.00;;;;;;5061425;28;20461;-73
2021/08/24 10:53:06;;;;;;;1.70;1.43;;;18.20;98.00;;;;;;5078991;28;20493;-73
2021/08/24 10:55:38;;;;;;;1.20;1.20;;;18.30;98.00;;;;;;5079235;28;20464;-73
2021/08/24 10:58:10;;;;;;;1.60;1.47;;;18.30;98.00;;;;;;5070168;28;20461;-73
2021/08/24 11:00:54;;;;;;;1.93;1.50;;;18.50;98.00;;;;;;5083032;28;20456;-72
2021/08/24 11:03:56;;;;;;;2.13;1.47;;;18.50;98.00;;;;;;5086441;28;20596;-73
2021/08/24 11:06:31;;;;;;;1.60;1.30;;;18.50;98.00;;;;;;5073267;28;20443;-73
2021/08/24 11:09:10;;;;;;;1.50;1.23;;;18.50;98.00;;;;;;5078560;28;20452;-74
2021/08/24 11:11:47;;;;;;;1.30;1.30;;;18.50;98.00;;;;;;5086158;28;20547;-73
2021/08/24 11:14:27;;;;;;;2.17;1.33;;;18.30;98.00;;;;;;5087163;28;20459;-74
2021/08/24 11:17:04;;;;;;;1.47;1.47;;;18.50;98.00;;;;;;5061301;28;20483;-75
2021/08/24 11:20:02;;;;;;;2.23;1.50;;;18.60;98.00;;;;;;5078603;28;20545;-74
2021/08/24 11:22:37;;;;;;;1.50;1.40;;;18.50;98.00;;;;;;5073964;28;20472;-73
2021/08/24 11:25:15;;;;;;;1.30;1.30;;;18.50;98.00;;;;;;5077166;28;21162;-74
2021/08/24 11:27:56;;;;;;;1.37;1.37;;;18.70;98.00;;;;;;5081616;28;20558;-73
2021/08/24 11:30:35;;;;;;;1.70;1.43;;;18.80;98.00;;;;;;5078760;28;20456;-74
2021/08/24 11:33:11;;;;;;;1.50;1.23;;;18.90;98.00;;;;;;5078825;28;20461;-73
2021/08/24 11:35:46;;;;;;;1.40;1.17;;;19.00;98.00;;;;;;5078431;28;20491;-74
2021/08/24 11:38:19;;;;;;;1.30;1.20;;;19.10;98.00;;;;;;5086768;28;20505;-74
2021/08/24 11:40:54;;;;;;;1.50;1.40;;;19.30;98.00;;;;;;5079348;28;20460;-74
2021/08/24 11:43:29;;;;;;;2.40;1.67;;;19.40;98.00;;;;;;5078144;28;20491;-73
2021/08/24 11:46:01;;;;;;;2.13;1.53;;;20.10;98.00;;;;;;5080616;28;20491;-73
2021/08/24 11:48:31;;;;;;;1.40;1.30;;;20.80;98.00;;;;;;5075822;28;20581;-74
2021/08/24 11:51:03;;;;;;;1.33;1.33;;;21.40;98.00;;;;;;5078525;28;20463;-73
2021/08/24 11:53:40;;;;;;;1.70;1.30;;;21.60;98.00;;;;;;5074717;28;20449;-73
2021/08/24 11:56:11;;;;;;;1.90;1.50;;;21.70;98.00;;;;;;5073410;28;20455;-73
2021/08/24 11:58:46;;;;;;;1.70;1.37;;;21.70;98.00;;;;;;5087024;28;20467;-73
2021/08/24 12:01:18;;;;;;;1.97;1.50;;;21.40;98.00;;;;;;5083955;28;20960;-74
2021/08/24 12:03:50;;;;;;;2.80;1.70;;;21.00;98.00;;;;;;5081410;28;20539;-73
2021/08/24 12:06:24;;;;;;;1.20;1.10;;;20.70;98.00;;;;;;5083090;28;20492;-73
2021/08/24 12:08:56;;;;;;;1.63;1.33;;;20.30;98.00;;;;;;5081440;28;20602;-74
2021/08/24 12:11:39;;;;;;;1.40;1.30;;;20.00;98.00;;;;;;5063701;28;20471;-70
2021/08/24 12:14:27;;;;;;;1.20;1.10;;;19.80;98.00;;;;;;5073744;28;20461;-75
2021/08/24 12:17:02;;;;;;;2.60;1.57;;;19.40;98.00;;;;;;5072207;28;20452;-74
2021/08/24 12:19:31;;;;;;;1.40;1.20;;;19.40;98.00;;;;;;5076851;28;20540;-73
2021/08/24 12:22:01;;;;;;;1.43;1.20;;;19.40;98.00;;;;;;5076981;28;21014;-74
2021/08/24 12:24:54;;;;;;;1.60;1.40;;;19.30;98.00;;;;;;5072341;28;20489;-73
2021/08/24 12:28:06;;;;;;;1.67;1.27;;;19.40;98.00;;;;;;5063584;28;20503;-73
2021/08/24 12:30:58;;;;;;;1.47;1.47;;;19.60;98.00;;;;;;5082075;28;21023;-71
2021/08/24 12:33:32;;;;;;;1.43;1.40;;;19.90;98.00;;;;;;5078947;28;20511;-72
2021/08/24 12:36:00;;;;;;;1.20;1.20;;;20.00;98.00;;;;;;5082030;28;21013;-72
2021/08/24 12:38:47;;;;;;;1.30;1.30;;;20.00;98.00;;;;;;5080605;28;20986;-73
2021/08/24 12:41:47;;;;;;;1.30;1.23;;;20.00;98.00;;;;;;5072258;28;20461;-72
2021/08/24 12:44:23;;;;;;;1.97;1.47;;;20.00;98.00;;;;;;5068333;28;20451;-73
2021/08/24 12:46:51;;;;;;;1.83;1.50;;;20.10;98.00;;;;;;5073782;28;20551;-74
2021/08/24 12:49:40;;;;;;;1.80;1.20;;;20.00;98.00;;;;;;5073481;28;20467;-72
2021/08/24 12:52:33;;;;;;;1.50;1.37;;;19.90;98.00;;;;;;5073521;28;20807;-72
2021/08/24 12:55:16;;;;;;;3.40;1.40;;;19.70;98.00;;;;;;5073321;28;20539;-72
2021/08/24 12:57:47;;;;;;;1.40;1.40;;;19.70;98.00;;;;;;5072541;28;20828;-72
2021/08/24 13:00:33;;;;;;;1.60;1.60;;;19.60;98.00;;;;;;5073496;28;20457;-71
2021/08/24 13:03:18;;;;;;;2.57;1.40;;;19.70;98.00;;;;;;5073395;28;20484;-73
2021/08/24 13:05:48;;;;;;;1.30;1.20;;;19.60;98.00;;;;;;5069995;28;20517;-74
2021/08/24 13:08:24;;;;;;;1.63;1.43;;;19.50;98.00;;;;;;5073274;28;20448;-73
2021/08/24 13:10:55;;;;;;;1.30;1.20;;;19.40;98.00;;;;;;5072750;28;20552;-73